Terminal Aerodrome Forecast
Issued by NWS

Home | Current Version | Previous Version | Text Only | Print | Product List | Glossary Off
Versions: 1 2 3 4 5 6 7 8 9 10 11 12 13 14 15 16 17 18 19 20 21 22 23 24 25 26 27 28 29 30 31 32 33 34 35 36 37 38 39
000 FTUS41 KBOX 281301 AAA TAFBED TAF AMD KBED 281301Z 2813/2912 14008KT 2SM TSRA BR OVC004CB FM281400 16011KT 5SM BR BKN012 FM282000 19013KT P6SM VCTS BKN050CB FM290000 23009KT P6SM BKN050 FM290700 26008KT P6SM SCT050=

USA.gov is the U.S. government's official web portal to all federal, state and local government web resources and services.